Time;durP1;ratioP1;P1;durP2;ratioP2;P2;SDS_P1;SDS_P2;PMS_P1;PMS_P2;Temp;Humidity;BMP_temperature;BMP_pressure;BME280_temperature;BME280_humidity;BME280_pressure;Samples;Min_cycle;Max_cycle;Signal;HPM_P1;HPM_P2
2024/01/20 00:00:27;;;;;;;16.40;12.63;;;;;;;-1.38;100.00;99183.31;5116806;28;20226;-76
2024/01/20 00:02:54;;;;;;;20.90;12.73;;;;;;;-1.20;100.00;99181.91;5116379;28;20210;-76
2024/01/20 00:05:20;;;;;;;17.40;13.30;;;;;;;-1.25;100.00;99177.97;5116539;28;20210;-76
2024/01/20 00:07:46;;;;;;;19.40;13.63;;;;;;;-1.29;100.00;99179.16;5116523;28;20431;-76
2024/01/20 00:10:13;;;;;;;17.80;12.87;;;;;;;-1.19;100.00;99173.13;5116535;28;20227;-76
2024/01/20 00:12:41;;;;;;;13.93;12.10;;;;;;;-1.43;100.00;99174.19;5116146;28;20428;-75
2024/01/20 00:15:09;;;;;;;16.10;12.20;;;;;;;-1.49;100.00;99172.84;5116941;28;20895;-75
2024/01/20 00:17:39;;;;;;;15.97;12.13;;;;;;;-1.41;100.00;99167.91;5116354;28;20483;-75
2024/01/20 00:20:07;;;;;;;15.73;11.93;;;;;;;-1.41;100.00;99167.06;5116184;28;20229;-75
2024/01/20 00:22:34;;;;;;;15.23;12.33;;;;;;;-1.43;100.00;99172.41;5115851;27;20685;-75
2024/01/20 00:25:02;;;;;;;19.27;12.17;;;;;;;-1.43;100.00;99176.78;5116302;28;20540;-75
2024/01/20 00:27:29;;;;;;;15.27;12.73;;;;;;;-1.38;100.00;99180.72;5115402;28;20249;-76
2024/01/20 00:29:55;;;;;;;18.60;12.00;;;;;;;-1.46;100.00;99179.63;5116132;28;20223;-76
2024/01/20 00:32:21;;;;;;;16.57;11.80;;;;;;;-1.47;100.00;99167.53;5116110;28;20200;-76
2024/01/20 00:34:48;;;;;;;16.90;12.43;;;;;;;-1.63;100.00;99167.06;5116044;28;20203;-75
2024/01/20 00:37:14;;;;;;;19.77;12.50;;;;;;;-1.64;100.00;99168.81;5116008;28;20227;-76
2024/01/20 00:39:41;;;;;;;16.37;12.40;;;;;;;-1.60;100.00;99167.66;5116104;28;20251;-75
2024/01/20 00:42:07;;;;;;;16.30;12.53;;;;;;;-1.60;100.00;99175.47;5116005;28;20522;-75
2024/01/20 00:44:33;;;;;;;16.17;12.90;;;;;;;-1.49;100.00;99182.47;5115984;28;20203;-75
2024/01/20 00:47:00;;;;;;;20.67;13.43;;;;;;;-1.52;100.00;99174.88;5116076;28;20200;-76
2024/01/20 00:49:26;;;;;;;16.03;12.63;;;;;;;-1.51;100.00;99174.78;5115780;28;20447;-75
2024/01/20 00:51:52;;;;;;;18.60;13.70;;;;;;;-1.50;100.00;99176.41;5115828;28;20432;-75
2024/01/20 00:54:19;;;;;;;19.03;13.23;;;;;;;-1.44;100.00;99178.56;5115633;28;20796;-75
2024/01/20 00:56:45;;;;;;;16.93;13.50;;;;;;;-1.54;100.00;99188.03;5115672;28;20259;-75
2024/01/20 00:59:11;;;;;;;18.13;12.43;;;;;;;-1.44;100.00;99188.97;5115660;28;20203;-75
2024/01/20 01:01:38;;;;;;;18.37;13.57;;;;;;;-1.56;100.00;99194.31;5115529;28;20209;-75
2024/01/20 01:04:04;;;;;;;17.43;13.77;;;;;;;-1.48;100.00;99197.16;5115372;28;20207;-73
2024/01/20 01:06:31;;;;;;;17.67;13.00;;;;;;;-1.55;100.00;99191.59;5115448;28;20203;-73
2024/01/20 01:08:57;;;;;;;20.00;13.27;;;;;;;-1.69;100.00;99186.59;5115359;28;20249;-75
2024/01/20 01:11:24;;;;;;;16.23;13.13;;;;;;;-1.60;100.00;99188.50;5115404;28;20290;-75
2024/01/20 01:13:50;;;;;;;16.47;13.03;;;;;;;-1.73;100.00;99192.97;5115450;28;20207;-75
2024/01/20 01:16:17;;;;;;;15.60;12.33;;;;;;;-1.67;100.00;99195.09;5114962;28;20737;-76
2024/01/20 01:18:43;;;;;;;18.40;12.93;;;;;;;-1.65;100.00;99192.38;5115505;28;20246;-75
2024/01/20 01:21:09;;;;;;;15.17;12.80;;;;;;;-1.80;100.00;99189.16;5114838;28;20451;-75
2024/01/20 01:23:36;;;;;;;17.33;12.93;;;;;;;-1.78;100.00;99195.09;5114775;28;20576;-75
2024/01/20 01:26:02;;;;;;;15.13;11.43;;;;;;;-1.96;100.00;99206.88;5115129;28;20432;-75
2024/01/20 01:28:29;;;;;;;18.40;13.37;;;;;;;-1.98;100.00;99205.34;5115220;28;20256;-75
2024/01/20 01:30:55;;;;;;;18.80;13.93;;;;;;;-1.88;100.00;99201.94;5114987;28;20459;-75
2024/01/20 01:33:21;;;;;;;17.70;12.80;;;;;;;-1.89;100.00;99212.47;5114996;28;20470;-75
2024/01/20 01:35:48;;;;;;;18.43;12.97;;;;;;;-1.90;100.00;99224.66;5115111;28;20436;-75
2024/01/20 01:38:14;;;;;;;20.27;13.43;;;;;;;-1.82;100.00;99232.75;5115374;28;20223;-75
2024/01/20 01:40:40;;;;;;;17.17;13.87;;;;;;;-1.87;100.00;99232.25;5115073;28;20807;-75
2024/01/20 01:43:08;;;;;;;20.07;13.83;;;;;;;-1.92;100.00;99228.31;5114817;28;20441;-75
2024/01/20 01:45:34;;;;;;;20.63;15.20;;;;;;;-1.93;100.00;99221.47;5114799;28;20203;-75
2024/01/20 01:48:00;;;;;;;20.63;14.83;;;;;;;-1.81;100.00;99215.34;5114729;28;20439;-75
2024/01/20 01:50:28;;;;;;;16.93;14.17;;;;;;;-1.93;100.00;99217.09;5114593;28;20219;-75
2024/01/20 01:52:55;;;;;;;19.43;15.53;;;;;;;-1.91;100.00;99225.63;5114660;28;20440;-75
2024/01/20 01:55:23;;;;;;;19.43;15.40;;;;;;;-1.94;100.00;99215.41;5114313;28;20919;-75
2024/01/20 01:57:52;;;;;;;19.93;15.10;;;;;;;-1.75;100.00;99214.88;5114673;28;20525;-76
2024/01/20 02:00:19;;;;;;;19.83;15.90;;;;;;;-1.89;100.00;99217.69;5114526;28;20227;-76
2024/01/20 02:02:45;;;;;;;18.47;14.47;;;;;;;-1.85;100.00;99211.31;5114535;28;20485;-75
2024/01/20 02:05:12;;;;;;;18.93;14.83;;;;;;;-2.00;100.00;99215.03;5114668;28;20435;-75
2024/01/20 02:07:39;;;;;;;18.60;15.13;;;;;;;-2.02;100.00;99217.78;5114602;28;20434;-75
2024/01/20 02:10:07;;;;;;;19.80;15.13;;;;;;;-2.15;100.00;99211.78;5114032;28;20459;-75
2024/01/20 02:12:35;;;;;;;22.13;15.77;;;;;;;-2.12;100.00;99201.13;5114399;28;20467;-75
2024/01/20 02:15:02;;;;;;;20.67;15.83;;;;;;;-2.13;100.00;99204.69;5114043;28;20997;-75
2024/01/20 02:17:28;;;;;;;20.70;15.90;;;;;;;-2.02;100.00;99209.94;5114244;28;20478;-75
2024/01/20 02:19:55;;;;;;;21.13;16.83;;;;;;;-2.06;100.00;99205.91;5114141;28;20456;-75
2024/01/20 02:22:21;;;;;;;21.20;16.60;;;;;;;-2.01;100.00;99211.59;5113914;28;20455;-76
2024/01/20 02:24:49;;;;;;;22.77;16.47;;;;;;;-1.95;100.00;99210.31;5114477;28;20434;-76
2024/01/20 02:27:17;;;;;;;21.53;17.07;;;;;;;-1.95;100.00;99208.53;5114129;28;20436;-75
2024/01/20 02:29:43;;;;;;;22.90;16.37;;;;;;;-1.80;100.00;99209.19;5114110;28;20462;-75
2024/01/20 02:32:10;;;;;;;20.90;16.80;;;;;;;-1.99;100.00;99211.50;5114399;28;20436;-75
2024/01/20 02:34:37;;;;;;;21.93;16.87;;;;;;;-2.00;100.00;99209.81;5114077;28;20523;-75
2024/01/20 02:37:07;;;;;;;19.47;15.83;;;;;;;-1.98;100.00;99208.75;5113963;28;20896;-75
2024/01/20 02:39:33;;;;;;;18.27;14.70;;;;;;;-1.99;100.00;99204.50;5113986;28;20451;-75
2024/01/20 02:41:59;;;;;;;18.47;14.27;;;;;;;-2.19;100.00;99209.50;5114073;28;20432;-75
2024/01/20 02:44:26;;;;;;;18.20;14.67;;;;;;;-1.96;100.00;99221.69;5114001;28;20434;-75
2024/01/20 02:46:52;;;;;;;18.87;15.03;;;;;;;-2.11;100.00;99233.22;5114066;28;20801;-75
2024/01/20 02:49:19;;;;;;;20.40;15.40;;;;;;;-1.99;100.00;99243.56;5114364;28;20486;-75
2024/01/20 02:51:45;;;;;;;18.73;15.43;;;;;;;-2.13;100.00;99243.75;5118246;28;20437;-75
2024/01/20 02:54:12;;;;;;;19.80;15.47;;;;;;;-2.10;100.00;99247.91;5118096;28;20431;-75
2024/01/20 02:56:38;;;;;;;23.23;17.33;;;;;;;-2.01;100.00;99255.06;5117740;28;20431;-75
2024/01/20 02:59:04;;;;;;;23.37;15.90;;;;;;;-1.89;100.00;99254.97;5117586;28;20482;-75
2024/01/20 03:01:31;;;;;;;19.53;15.57;;;;;;;-1.96;100.00;99252.94;5117720;28;20435;-75
2024/01/20 03:03:57;;;;;;;18.30;15.87;;;;;;;-2.07;100.00;99256.31;5117995;28;20439;-75
2024/01/20 03:06:24;;;;;;;21.03;15.90;;;;;;;-2.00;100.00;99262.75;5117831;28;20442;-75
2024/01/20 03:08:50;;;;;;;20.33;16.23;;;;;;;-2.16;100.00;99250.97;5117919;28;20434;-75
2024/01/20 03:11:16;;;;;;;22.17;16.90;;;;;;;-2.10;100.00;99255.72;5117736;28;20447;-75
2024/01/20 03:13:43;;;;;;;21.30;16.63;;;;;;;-2.08;100.00;99243.44;5117683;28;20431;-75
2024/01/20 03:16:10;;;;;;;23.50;16.37;;;;;;;-2.10;100.00;99245.31;5117348;28;20523;-75
2024/01/20 03:18:37;;;;;;;23.57;17.37;;;;;;;-2.01;100.00;99242.88;5117620;28;20483;-75
2024/01/20 03:21:04;;;;;;;21.57;17.10;;;;;;;-2.01;100.00;99250.69;5117351;28;20462;-75
2024/01/20 03:23:31;;;;;;;22.37;16.60;;;;;;;-2.06;100.00;99250.19;5117253;27;20439;-75
2024/01/20 03:25:57;;;;;;;21.10;16.67;;;;;;;-2.10;100.00;99251.34;5117493;28;20439;-75
2024/01/20 03:28:23;;;;;;;20.73;16.73;;;;;;;-2.13;100.00;99256.78;5117047;28;20515;-75
2024/01/20 03:30:50;;;;;;;21.10;15.80;;;;;;;-2.25;100.00;99244.63;5116953;28;20982;-76
2024/01/20 03:33:16;;;;;;;22.23;16.40;;;;;;;-2.17;100.00;99244.09;5117275;28;20439;-76
2024/01/20 03:35:43;;;;;;;20.27;16.37;;;;;;;-2.25;100.00;99246.41;5117647;28;20431;-75
2024/01/20 03:38:09;;;;;;;25.27;17.80;;;;;;;-2.02;100.00;99246.44;5117159;28;20477;-75
2024/01/20 03:40:35;;;;;;;24.10;18.07;;;;;;;-2.11;100.00;99249.69;5116806;28;20466;-75
2024/01/20 03:43:02;;;;;;;23.63;17.00;;;;;;;-1.98;100.00;99250.44;5116955;28;20435;-75
2024/01/20 03:45:28;;;;;;;21.07;16.37;;;;;;;-2.01;100.00;99255.91;5116803;28;20780;-75
2024/01/20 03:47:54;;;;;;;23.87;16.93;;;;;;;-1.97;100.00;99251.28;5116777;28;20953;-75
2024/01/20 03:50:21;;;;;;;20.00;15.80;;;;;;;-2.08;100.00;99257.28;5117844;28;20867;-76
2024/01/20 03:52:47;;;;;;;21.57;16.23;;;;;;;-1.98;100.00;99260.88;5117237;28;20536;-75
2024/01/20 03:55:13;;;;;;;22.60;17.27;;;;;;;-2.08;100.00;99249.47;5116925;28;20432;-75
2024/01/20 03:57:40;;;;;;;18.87;15.27;;;;;;;-2.10;100.00;99258.31;5116744;28;20497;-75
2024/01/20 04:00:07;;;;;;;21.47;16.40;;;;;;;-2.11;100.00;99252.31;5116396;28;20814;-75
2024/01/20 04:02:33;;;;;;;22.90;17.80;;;;;;;-2.10;100.00;99264.38;5115351;28;20439;-75
2024/01/20 04:04:59;;;;;;;20.30;16.83;;;;;;;-2.15;100.00;99276.91;5116682;28;20440;-75
2024/01/20 04:07:26;;;;;;;22.10;16.63;;;;;;;-2.11;100.00;99272.31;5116827;28;20438;-75
2024/01/20 04:09:52;;;;;;;21.70;15.73;;;;;;;-2.21;100.00;99266.09;5116500;28;20455;-75
2024/01/20 04:12:18;;;;;;;20.80;16.10;;;;;;;-2.26;100.00;99268.22;5116493;28;20431;-75
2024/01/20 04:14:45;;;;;;;20.13;16.37;;;;;;;-2.36;100.00;99278.44;5116642;28;20437;-75
2024/01/20 04:17:11;;;;;;;23.27;16.43;;;;;;;-2.30;100.00;99271.97;5116285;28;20438;-75
2024/01/20 04:19:37;;;;;;;21.53;17.07;;;;;;;-2.23;100.00;99275.78;5116352;28;20455;-75
2024/01/20 04:22:04;;;;;;;22.90;17.03;;;;;;;-2.31;100.00;99271.13;5116119;28;20443;-75
2024/01/20 04:24:30;;;;;;;24.87;17.27;;;;;;;-2.35;100.00;99267.06;5116875;28;20458;-75
2024/01/20 04:26:57;;;;;;;21.70;17.20;;;;;;;-2.39;100.00;99259.59;5116239;28;20442;-75
2024/01/20 04:29:23;;;;;;;25.83;18.33;;;;;;;-2.36;100.00;99264.56;5115884;28;20447;-75
2024/01/20 04:31:49;;;;;;;24.07;16.80;;;;;;;-2.35;100.00;99269.66;5116242;28;20440;-75
2024/01/20 04:34:16;;;;;;;22.17;16.97;;;;;;;-2.43;100.00;99269.38;5116337;28;20431;-75
2024/01/20 04:36:42;;;;;;;26.77;18.90;;;;;;;-2.43;100.00;99273.78;5116076;28;20438;-75
2024/01/20 04:39:08;;;;;;;27.57;16.97;;;;;;;-2.61;100.00;99280.28;5115855;28;20486;-76
2024/01/20 04:41:35;;;;;;;23.47;17.57;;;;;;;-2.50;100.00;99289.00;5115937;28;20795;-76
2024/01/20 04:44:01;;;;;;;24.87;18.10;;;;;;;-2.48;100.00;99286.28;5115718;28;20787;-76
2024/01/20 04:46:27;;;;;;;23.43;17.47;;;;;;;-2.44;100.00;99288.56;5115570;28;20809;-75
2024/01/20 04:48:54;;;;;;;22.47;16.50;;;;;;;-2.48;100.00;99291.50;5115718;28;20523;-75
2024/01/20 04:51:20;;;;;;;23.20;16.60;;;;;;;-2.40;100.00;99295.22;5115783;28;20799;-75
2024/01/20 04:53:47;;;;;;;24.63;18.03;;;;;;;-2.36;100.00;99301.88;5115688;28;20432;-75
2024/01/20 04:56:13;;;;;;;22.47;17.07;;;;;;;-2.37;100.00;99296.75;5115616;28;20485;-75
2024/01/20 04:58:39;;;;;;;21.77;16.63;;;;;;;-2.33;100.00;99303.44;5115599;28;20475;-75
2024/01/20 05:01:06;;;;;;;22.17;16.70;;;;;;;-2.41;100.00;99290.94;5115556;28;20462;-75
2024/01/20 05:03:32;;;;;;;22.80;17.80;;;;;;;-2.50;100.00;99291.59;5115754;28;20435;-75
2024/01/20 05:05:59;;;;;;;24.23;17.27;;;;;;;-2.51;100.00;99295.16;5115519;28;20770;-75
2024/01/20 05:08:25;;;;;;;21.47;16.67;;;;;;;-2.55;100.00;99285.88;5115086;28;20926;-76
2024/01/20 05:10:52;;;;;;;23.00;16.97;;;;;;;-2.42;100.00;99293.66;5115166;28;20508;-75
2024/01/20 05:13:18;;;;;;;23.60;17.30;;;;;;;-2.39;100.00;99298.66;5114973;28;20438;-75
2024/01/20 05:15:44;;;;;;;23.80;17.77;;;;;;;-2.42;100.00;99304.06;5115242;28;20435;-75
2024/01/20 05:18:11;;;;;;;21.37;16.53;;;;;;;-2.46;100.00;99303.47;5115108;28;20478;-75
2024/01/20 05:20:37;;;;;;;21.53;16.93;;;;;;;-2.56;100.00;99301.59;5115012;28;20454;-75
2024/01/20 05:23:04;;;;;;;21.90;16.73;;;;;;;-2.62;100.00;99305.47;5114728;28;20455;-75
2024/01/20 05:25:30;;;;;;;19.57;15.57;;;;;;;-2.67;100.00;99307.56;5114815;28;20914;-75
2024/01/20 05:27:56;;;;;;;21.80;16.77;;;;;;;-2.66;100.00;99306.59;5114782;28;20438;-75
2024/01/20 05:30:23;;;;;;;18.37;14.90;;;;;;;-2.73;100.00;99313.19;5114719;28;20452;-75
2024/01/20 05:32:50;;;;;;;21.60;17.43;;;;;;;-2.72;100.00;99309.66;5115220;28;20478;-75
2024/01/20 05:35:18;;;;;;;20.23;15.20;;;;;;;-2.81;100.00;99307.69;5114939;28;20427;-75
2024/01/20 05:37:44;;;;;;;24.00;16.70;;;;;;;-2.78;100.00;99315.28;5114490;28;20504;-75
2024/01/20 05:40:11;;;;;;;22.17;16.80;;;;;;;-2.84;100.00;99310.47;5114715;28;20497;-76
2024/01/20 05:42:37;;;;;;;27.80;18.77;;;;;;;-2.91;100.00;99319.66;5115545;27;20790;-75
2024/01/20 05:45:08;;;;;;;24.23;17.57;;;;;;;-2.94;100.00;99313.84;5114650;28;20431;-76
2024/01/20 05:47:35;;;;;;;24.37;18.30;;;;;;;-2.91;100.00;99324.03;5114278;28;20833;-75
2024/01/20 05:50:01;;;;;;;23.63;16.93;;;;;;;-2.98;100.00;99330.59;5094761;28;20511;-75
2024/01/20 05:52:27;;;;;;;24.47;16.03;;;;;;;-2.95;100.00;99333.81;5101809;28;20799;-76
2024/01/20 05:54:54;;;;;;;23.30;17.37;;;;;;;-3.01;100.00;99331.63;5114089;28;20919;-75
2024/01/20 05:57:20;;;;;;;25.03;17.50;;;;;;;-3.11;100.00;99338.38;5114035;28;20449;-75
2024/01/20 05:59:47;;;;;;;21.67;16.43;;;;;;;-3.05;100.00;99340.56;5113478;28;21016;-75
2024/01/20 06:02:13;;;;;;;24.60;17.20;;;;;;;-2.92;100.00;99338.81;5114546;28;20432;-75
2024/01/20 06:04:39;;;;;;;21.03;17.37;;;;;;;-2.98;100.00;99339.22;5114946;28;20431;-75
2024/01/20 06:07:06;;;;;;;22.73;17.67;;;;;;;-3.08;100.00;99340.78;5114059;28;20432;-75
2024/01/20 06:09:32;;;;;;;23.73;17.83;;;;;;;-3.01;100.00;99346.41;5113837;28;20448;-75
2024/01/20 06:11:58;;;;;;;23.23;17.53;;;;;;;-3.04;100.00;99338.78;5113905;28;20436;-75
2024/01/20 06:14:25;;;;;;;28.37;18.67;;;;;;;-3.00;100.00;99337.66;5113732;28;20930;-75
2024/01/20 06:16:51;;;;;;;27.17;18.70;;;;;;;-2.97;100.00;99348.72;5113685;28;20431;-75
2024/01/20 06:19:17;;;;;;;24.70;18.27;;;;;;;-3.09;100.00;99344.31;5113794;28;20491;-75
2024/01/20 06:21:44;;;;;;;25.87;19.37;;;;;;;-3.04;100.00;99341.38;5113333;28;20450;-75
2024/01/20 06:24:10;;;;;;;27.60;19.17;;;;;;;-3.00;100.00;99341.09;5113291;28;20430;-75
2024/01/20 06:26:37;;;;;;;27.33;19.07;;;;;;;-2.88;100.00;99342.88;5113866;28;20435;-75
2024/01/20 06:29:03;;;;;;;25.90;19.87;;;;;;;-2.92;100.00;99349.22;5113362;28;20455;-75
2024/01/20 06:31:29;;;;;;;25.30;19.13;;;;;;;-2.95;100.00;99358.97;5113816;28;20442;-75
2024/01/20 06:33:56;;;;;;;28.37;20.23;;;;;;;-3.02;100.00;99362.94;5113165;28;20428;-75
2024/01/20 06:36:25;;;;;;;25.50;19.33;;;;;;;-3.05;100.00;99357.94;5113437;28;20428;-75
2024/01/20 06:38:51;;;;;;;27.97;20.00;;;;;;;-3.07;100.00;99365.03;5113855;28;20562;-75
2024/01/20 06:41:18;;;;;;;27.10;19.90;;;;;;;-2.97;100.00;99373.88;5113608;28;20463;-75
2024/01/20 06:43:44;;;;;;;27.50;20.67;;;;;;;-2.97;100.00;99377.31;5113289;28;20531;-75
2024/01/20 06:46:10;;;;;;;28.43;20.23;;;;;;;-3.00;100.00;99371.47;5113686;28;20437;-75
2024/01/20 06:48:37;;;;;;;31.23;21.13;;;;;;;-3.01;100.00;99381.06;5113124;28;20442;-75
2024/01/20 06:51:04;;;;;;;27.67;19.27;;;;;;;-3.08;100.00;99379.78;5113884;28;20456;-75
2024/01/20 06:53:31;;;;;;;25.73;19.70;;;;;;;-2.99;100.00;99378.38;5113256;28;20530;-75
2024/01/20 06:55:58;;;;;;;32.50;21.00;;;;;;;-2.94;100.00;99378.88;5113824;28;20436;-75
2024/01/20 06:58:25;;;;;;;27.57;19.63;;;;;;;-2.85;100.00;99366.06;5113505;28;20471;-75
2024/01/20 07:00:51;;;;;;;27.20;19.47;;;;;;;-2.89;100.00;99375.00;5113164;28;20455;-75
2024/01/20 07:03:18;;;;;;;30.00;20.37;;;;;;;-2.87;100.00;99372.31;5099722;28;20868;-75
2024/01/20 07:05:44;;;;;;;28.40;19.70;;;;;;;-2.82;100.00;99386.69;5113146;28;20432;-75
2024/01/20 07:08:11;;;;;;;26.37;20.10;;;;;;;-2.87;100.00;99396.56;5113382;28;20774;-75
2024/01/20 07:10:37;;;;;;;27.50;20.70;;;;;;;-2.84;100.00;99401.56;5113217;28;20448;-75
2024/01/20 07:13:04;;;;;;;26.90;20.20;;;;;;;-2.78;100.00;99408.13;5113689;28;20436;-75
2024/01/20 07:15:30;;;;;;;25.90;20.27;;;;;;;-2.81;100.00;99414.38;5113369;28;20906;-76
2024/01/20 07:17:57;;;;;;;26.23;20.20;;;;;;;-2.75;100.00;99413.94;5112914;28;20922;-75
2024/01/20 07:20:25;;;;;;;27.37;19.87;;;;;;;-2.79;100.00;99420.31;5112928;28;20447;-75
2024/01/20 07:22:51;;;;;;;27.37;19.67;;;;;;;-2.88;100.00;99418.34;5112898;28;20452;-76
2024/01/20 07:25:20;;;;;;;26.47;19.43;;;;;;;-2.88;100.00;99417.50;5113263;28;20431;-75
2024/01/20 07:27:47;;;;;;;24.87;18.30;;;;;;;-2.85;100.00;99415.50;5113292;28;20439;-75
2024/01/20 07:30:14;;;;;;;23.63;18.77;;;;;;;-2.84;100.00;99418.94;5112653;28;20487;-75
2024/01/20 07:32:40;;;;;;;25.27;17.43;;;;;;;-2.83;100.00;99429.25;5113258;28;20463;-75
2024/01/20 07:35:08;;;;;;;25.97;17.80;;;;;;;-2.72;100.00;99424.16;5112975;28;20435;-76
2024/01/20 07:37:36;;;;;;;26.13;18.70;;;;;;;-2.83;100.00;99431.88;5115874;28;20439;-75
2024/01/20 07:40:05;;;;;;;26.60;18.53;;;;;;;-2.87;100.00;99435.59;5116434;28;20504;-75
2024/01/20 07:42:34;;;;;;;27.30;18.53;;;;;;;-2.92;100.00;99434.25;5116791;28;20443;-76
2024/01/20 07:45:00;;;;;;;25.33;19.30;;;;;;;-2.85;100.00;99436.31;5116642;28;20930;-76
2024/01/20 07:47:27;;;;;;;23.30;18.47;;;;;;;-2.96;100.00;99435.38;5116430;28;20436;-76
2024/01/20 07:49:53;;;;;;;23.47;17.97;;;;;;;-2.75;100.00;99437.38;5116626;28;20443;-76
2024/01/20 07:52:19;;;;;;;25.57;19.30;;;;;;;-2.87;100.00;99443.41;5116466;28;20928;-75
2024/01/20 07:54:46;;;;;;;26.50;18.67;;;;;;;-2.89;100.00;99447.06;5115996;28;20799;-75
2024/01/20 07:57:12;;;;;;;24.33;18.70;;;;;;;-2.67;100.00;99442.09;5116734;28;20427;-75
2024/01/20 07:59:39;;;;;;;22.80;17.43;;;;;;;-2.77;100.00;99447.06;5116196;28;20479;-76
2024/01/20 08:02:05;;;;;;;25.47;17.47;;;;;;;-2.74;100.00;99449.47;5116410;28;20470;-75
2024/01/20 08:04:32;;;;;;;25.27;18.63;;;;;;;-2.87;100.00;99451.22;5116103;28;20432;-75
2024/01/20 08:06:59;;;;;;;21.43;16.80;;;;;;;-2.89;100.00;99453.06;5116450;28;20468;-75
2024/01/20 08:09:25;;;;;;;25.83;18.60;;;;;;;-2.92;100.00;99453.28;5115940;28;20542;-75
2024/01/20 08:11:51;;;;;;;25.30;18.00;;;;;;;-2.93;100.00;99450.78;5116136;28;20458;-75
2024/01/20 08:14:18;;;;;;;25.80;18.63;;;;;;;-2.83;100.00;99459.66;5115880;28;20439;-75
2024/01/20 08:16:44;;;;;;;23.73;18.30;;;;;;;-2.91;100.00;99456.72;5117299;28;20436;-75
2024/01/20 08:19:10;;;;;;;24.03;17.90;;;;;;;-2.87;100.00;99456.41;5115869;28;20489;-75
2024/01/20 08:21:37;;;;;;;27.97;18.43;;;;;;;-2.75;100.00;99470.38;5115666;28;20457;-75
2024/01/20 08:24:03;;;;;;;23.23;17.50;;;;;;;-2.79;100.00;99468.91;5115804;28;20436;-75
2024/01/20 08:26:32;;;;;;;23.93;17.47;;;;;;;-2.78;100.00;99471.44;5115845;28;20616;-75
2024/01/20 08:28:58;;;;;;;23.20;18.30;;;;;;;-2.78;100.00;99468.81;5115775;28;20520;-75
2024/01/20 08:31:25;;;;;;;26.73;18.73;;;;;;;-2.91;100.00;99460.16;5115987;28;20535;-76
2024/01/20 08:33:51;;;;;;;28.03;19.83;;;;;;;-2.77;100.00;99457.47;5115750;28;20470;-76
2024/01/20 08:36:17;;;;;;;23.93;19.00;;;;;;;-2.88;100.00;99457.38;5115943;28;20435;-76
2024/01/20 08:38:44;;;;;;;26.17;18.77;;;;;;;-2.89;100.00;99467.88;5115616;28;20479;-76
2024/01/20 08:41:11;;;;;;;25.03;19.23;;;;;;;-2.87;100.00;99471.19;5115672;28;20478;-76
2024/01/20 08:43:42;;;;;;;25.90;20.07;;;;;;;-2.82;100.00;99474.31;5115396;28;20432;-75
2024/01/20 08:46:08;;;;;;;26.37;18.57;;;;;;;-2.80;100.00;99480.28;5114631;28;20937;-75
2024/01/20 08:48:35;;;;;;;27.97;19.97;;;;;;;-2.64;100.00;99478.31;5115067;28;20522;-76
2024/01/20 08:51:01;;;;;;;27.70;20.63;;;;;;;-2.54;100.00;99481.94;5115504;28;20455;-75
2024/01/20 08:53:28;;;;;;;29.93;20.67;;;;;;;-2.55;100.00;99488.09;5115173;28;20444;-76
2024/01/20 08:55:54;;;;;;;24.03;18.73;;;;;;;-2.52;100.00;99496.53;5114838;28;20439;-76
2024/01/20 08:58:21;;;;;;;27.70;19.47;;;;;;;-2.46;100.00;99509.16;5115170;28;20518;-75
2024/01/20 09:00:47;;;;;;;26.83;20.30;;;;;;;-2.08;100.00;99504.78;5115356;28;20483;-75
2024/01/20 09:03:15;;;;;;;29.63;21.33;;;;;;;-2.38;100.00;99506.03;5101712;28;20435;-75
2024/01/20 09:05:42;;;;;;;26.13;19.70;;;;;;;-2.48;100.00;99513.63;5115208;28;20454;-75
2024/01/20 09:08:10;;;;;;;31.47;21.40;;;;;;;-2.47;100.00;99520.53;5115345;28;20439;-75
2024/01/20 09:10:37;;;;;;;30.40;21.40;;;;;;;-2.46;100.00;99514.38;5115167;28;20451;-75
2024/01/20 09:13:04;;;;;;;25.97;19.60;;;;;;;-2.53;100.00;99517.50;5114771;28;20441;-75
2024/01/20 09:15:31;;;;;;;28.03;19.93;;;;;;;-2.32;100.00;99519.47;5114115;28;20465;-75
2024/01/20 09:17:58;;;;;;;25.30;19.20;;;;;;;-2.45;100.00;99523.84;5114957;28;20868;-75
2024/01/20 09:20:24;;;;;;;29.03;20.63;;;;;;;-2.52;100.00;99532.16;5114862;28;20489;-75
2024/01/20 09:22:51;;;;;;;26.40;20.00;;;;;;;-2.55;100.00;99533.22;5114535;28;20458;-76
2024/01/20 09:25:17;;;;;;;26.37;18.80;;;;;;;-2.37;100.00;99533.75;5114197;28;20436;-76
2024/01/20 09:27:44;;;;;;;28.70;19.60;;;;;;;-2.35;100.00;99530.09;5114728;28;20439;-76
2024/01/20 09:30:11;;;;;;;28.50;19.93;;;;;;;-2.40;100.00;99529.56;5114449;28;20444;-76
2024/01/20 09:32:37;;;;;;;25.97;19.93;;;;;;;-2.36;100.00;99532.81;5114634;28;20480;-76
2024/01/20 09:35:04;;;;;;;30.30;21.27;;;;;;;-2.20;100.00;99533.44;5114360;28;20462;-76
2024/01/20 09:37:30;;;;;;;25.07;18.73;;;;;;;-2.13;100.00;99535.53;5114467;28;20438;-76
2024/01/20 09:39:57;;;;;;;29.73;20.33;;;;;;;-2.30;100.00;99532.41;5113984;28;20483;-76
2024/01/20 09:42:24;;;;;;;26.83;19.10;;;;;;;-2.34;100.00;99546.56;5114454;28;20848;-76
2024/01/20 09:44:51;;;;;;;28.40;20.30;;;;;;;-2.30;100.00;99543.63;5114243;28;20965;-75
2024/01/20 09:47:18;;;;;;;25.33;19.63;;;;;;;-2.20;100.00;99551.69;5114633;28;20442;-76
2024/01/20 09:49:45;;;;;;;29.17;20.70;;;;;;;-2.18;100.00;99552.41;5114075;28;20455;-76
2024/01/20 09:52:29;;;;;;;26.80;19.47;;;;;;;-2.19;100.00;99548.13;5114571;28;20436;-76
2024/01/20 09:55:11;;;;;;;29.30;21.07;;;;;;;-1.78;100.00;99559.19;5101021;28;20436;-76
2024/01/20 09:57:40;;;;;;;29.57;20.97;;;;;;;-2.00;100.00;99558.97;5113885;28;20949;-75
2024/01/20 10:00:08;;;;;;;27.93;20.10;;;;;;;-2.17;100.00;99562.72;5114000;28;20487;-76
2024/01/20 10:02:37;;;;;;;31.90;22.60;;;;;;;-2.03;100.00;99557.41;5114184;28;20467;-76
2024/01/20 10:05:05;;;;;;;27.57;19.47;;;;;;;-2.00;100.00;99561.59;5114373;28;20436;-75
2024/01/20 10:07:32;;;;;;;25.30;18.70;;;;;;;-2.40;100.00;99576.44;5113623;28;20788;-75
2024/01/20 10:09:59;;;;;;;27.47;19.30;;;;;;;-2.25;100.00;99557.19;5114105;28;20459;-75
2024/01/20 10:12:25;;;;;;;24.60;18.77;;;;;;;-2.31;100.00;99552.41;5113800;28;20432;-75
2024/01/20 10:14:52;;;;;;;23.50;18.40;;;;;;;-2.14;100.00;99551.25;5113164;28;20931;-76
2024/01/20 10:17:19;;;;;;;23.30;18.43;;;;;;;-2.22;100.00;99546.56;5113836;28;20440;-76
2024/01/20 10:19:46;;;;;;;27.13;20.17;;;;;;;-2.27;100.00;99551.25;5113883;27;20548;-75
2024/01/20 10:22:13;;;;;;;27.90;19.57;;;;;;;-2.39;100.00;99557.28;5113475;28;20794;-76
2024/01/20 10:24:50;;;;;;;29.33;20.07;;;;;;;-2.34;100.00;99555.19;5113777;28;20440;-76
2024/01/20 10:27:18;;;;;;;28.87;20.80;;;;;;;-2.15;100.00;99552.22;5113257;28;20941;-76
2024/01/20 10:29:46;;;;;;;30.00;19.73;;;;;;;-2.12;100.00;99567.63;5117600;28;20860;-76
2024/01/20 10:32:13;;;;;;;27.67;19.83;;;;;;;-2.10;100.00;99564.00;5114481;28;20438;-76
2024/01/20 10:34:39;;;;;;;27.43;20.33;;;;;;;-1.78;100.00;99561.78;5113643;28;20440;-76
2024/01/20 10:37:10;;;;;;;28.03;20.03;;;;;;;-1.99;100.00;99565.88;5113189;28;20438;-76
2024/01/20 10:39:43;;;;;;;29.33;20.90;;;;;;;-2.06;100.00;99564.63;5113111;28;20487;-75
2024/01/20 10:42:16;;;;;;;27.73;20.43;;;;;;;-2.07;100.00;99568.16;5099906;28;20435;-75
2024/01/20 10:45:03;;;;;;;28.73;20.47;;;;;;;-1.89;100.00;99567.72;5113237;28;20794;-75
2024/01/20 10:47:37;;;;;;;29.40;21.37;;;;;;;-1.77;100.00;99555.63;5113151;28;20919;-75
2024/01/20 10:50:08;;;;;;;30.43;20.90;;;;;;;-1.53;100.00;99557.38;5113716;28;20462;-75
2024/01/20 10:52:36;;;;;;;28.20;20.20;;;;;;;-1.68;100.00;99552.38;5113317;28;20801;-75
2024/01/20 10:55:04;;;;;;;28.60;21.07;;;;;;;-1.91;100.00;99553.13;5113220;28;20458;-75
2024/01/20 10:57:31;;;;;;;31.40;21.90;;;;;;;-1.83;100.00;99553.44;5112967;28;20446;-75
2024/01/20 10:59:59;;;;;;;25.73;19.27;;;;;;;-1.83;100.00;99541.25;5112913;28;20471;-75
2024/01/20 11:02:27;;;;;;;27.53;21.13;;;;;;;-1.84;100.00;99538.75;5113088;28;20800;-75
2024/01/20 11:04:53;;;;;;;30.40;20.83;;;;;;;-1.76;100.00;99541.69;5113611;28;20436;-75
2024/01/20 11:07:24;;;;;;;26.67;19.47;;;;;;;-1.72;100.00;99538.72;5112968;28;20439;-75